sensor_id;sensor_type;location;lat;lon;timestamp;P1;durP1;ratioP1;P2;durP2;ratioP2
8698;SDS011;4386;51.236;6.742;2022-09-09T00:00:54;6.43;;;3.30;;
8698;SDS011;4386;51.236;6.742;2022-09-09T00:02:02;4.30;;;3.13;;
8698;SDS011;4386;51.236;6.742;2022-09-09T00:03:14;3.90;;;3.50;;
8698;SDS011;4386;51.236;6.742;2022-09-09T00:04:22;2.63;;;2.43;;
8698;SDS011;4386;51.236;6.742;2022-09-09T00:05:31;4.37;;;2.33;;
8698;SDS011;4386;51.236;6.742;2022-09-09T00:06:45;1.73;;;1.63;;
8698;SDS011;4386;51.236;6.742;2022-09-09T00:07:54;1.90;;;1.80;;
8698;SDS011;4386;51.236;6.742;2022-09-09T00:09:00;2.60;;;2.17;;
8698;SDS011;4386;51.236;6.742;2022-09-09T00:10:09;2.20;;;1.70;;
8698;SDS011;4386;51.236;6.742;2022-09-09T00:11:19;3.37;;;1.67;;
8698;SDS011;4386;51.236;6.742;2022-09-09T00:12:34;2.50;;;1.70;;
8698;SDS011;4386;51.236;6.742;2022-09-09T00:13:44;2.53;;;1.90;;
8698;SDS011;4386;51.236;6.742;2022-09-09T00:14:51;6.23;;;1.50;;
8698;SDS011;4386;51.236;6.742;2022-09-09T00:15:57;3.10;;;1.60;;
8698;SDS011;4386;51.236;6.742;2022-09-09T00:17:04;2.40;;;1.73;;
8698;SDS011;4386;51.236;6.742;2022-09-09T00:18:15;1.40;;;1.30;;
8698;SDS011;4386;51.236;6.742;2022-09-09T00:19:24;4.23;;;1.70;;
8698;SDS011;4386;51.236;6.742;2022-09-09T00:20:34;1.70;;;1.10;;
8698;SDS011;4386;51.236;6.742;2022-09-09T00:21:46;1.93;;;1.40;;
8698;SDS011;4386;51.236;6.742;2022-09-09T00:22:53;3.10;;;1.23;;
8698;SDS011;4386;51.236;6.742;2022-09-09T00:24:04;4.13;;;1.20;;
8698;SDS011;4386;51.236;6.742;2022-09-09T00:25:12;1.80;;;1.47;;
8698;SDS011;4386;51.236;6.742;2022-09-09T00:26:19;1.10;;;1.00;;
8698;SDS011;4386;51.236;6.742;2022-09-09T00:27:27;2.83;;;1.57;;
8698;SDS011;4386;51.236;6.742;2022-09-09T00:28:35;4.47;;;1.40;;
8698;SDS011;4386;51.236;6.742;2022-09-09T00:29:43;1.60;;;1.43;;
8698;SDS011;4386;51.236;6.742;2022-09-09T00:30:49;1.43;;;1.20;;
8698;SDS011;4386;51.236;6.742;2022-09-09T00:31:51;3.10;;;1.40;;
8698;SDS011;4386;51.236;6.742;2022-09-09T00:33:01;1.80;;;1.23;;
8698;SDS011;4386;51.236;6.742;2022-09-09T00:34:15;1.93;;;1.30;;
8698;SDS011;4386;51.236;6.742;2022-09-09T00:35:23;1.30;;;1.20;;
8698;SDS011;4386;51.236;6.742;2022-09-09T00:36:27;1.93;;;1.40;;
8698;SDS011;4386;51.236;6.742;2022-09-09T00:37:31;2.93;;;1.80;;
8698;SDS011;4386;51.236;6.742;2022-09-09T00:38:36;1.73;;;1.50;;
8698;SDS011;4386;51.236;6.742;2022-09-09T00:39:46;3.33;;;1.67;;
8698;SDS011;4386;51.236;6.742;2022-09-09T00:40:49;5.77;;;1.43;;
8698;SDS011;4386;51.236;6.742;2022-09-09T00:41:57;3.80;;;1.70;;
8698;SDS011;4386;51.236;6.742;2022-09-09T00:43:28;1.60;;;1.43;;
8698;SDS011;4386;51.236;6.742;2022-09-09T00:44:33;2.10;;;1.60;;
8698;SDS011;4386;51.236;6.742;2022-09-09T00:45:42;2.20;;;1.50;;
8698;SDS011;4386;51.236;6.742;2022-09-09T00:47:12;1.57;;;1.47;;
8698;SDS011;4386;51.236;6.742;2022-09-09T00:48:28;3.30;;;1.77;;
8698;SDS011;4386;51.236;6.742;2022-09-09T00:49:39;1.63;;;1.30;;
8698;SDS011;4386;51.236;6.742;2022-09-09T00:50:52;3.63;;;1.57;;
8698;SDS011;4386;51.236;6.742;2022-09-09T00:51:59;1.90;;;1.43;;
8698;SDS011;4386;51.236;6.742;2022-09-09T00:53:24;1.73;;;1.50;;
8698;SDS011;4386;51.236;6.742;2022-09-09T00:54:38;5.50;;;1.90;;
8698;SDS011;4386;51.236;6.742;2022-09-09T00:55:48;3.07;;;1.70;;
8698;SDS011;4386;51.236;6.742;2022-09-09T00:56:56;3.27;;;1.87;;
8698;SDS011;4386;51.236;6.742;2022-09-09T00:58:08;3.00;;;2.13;;
8698;SDS011;4386;51.236;6.742;2022-09-09T00:59:12;2.40;;;1.57;;
8698;SDS011;4386;51.236;6.742;2022-09-09T01:00:30;2.00;;;1.90;;
8698;SDS011;4386;51.236;6.742;2022-09-09T01:01:38;11.17;;;1.70;;
8698;SDS011;4386;51.236;6.742;2022-09-09T01:02:43;4.03;;;2.27;;
8698;SDS011;4386;51.236;6.742;2022-09-09T01:03:54;2.43;;;1.70;;
8698;SDS011;4386;51.236;6.742;2022-09-09T01:05:01;4.87;;;2.23;;
8698;SDS011;4386;51.236;6.742;2022-09-09T01:06:13;4.40;;;1.83;;
8698;SDS011;4386;51.236;6.742;2022-09-09T01:07:18;2.13;;;1.60;;
8698;SDS011;4386;51.236;6.742;2022-09-09T01:09:46;2.43;;;2.17;;
8698;SDS011;4386;51.236;6.742;2022-09-09T01:10:54;2.37;;;1.63;;
8698;SDS011;4386;51.236;6.742;2022-09-09T01:12:01;3.80;;;1.70;;
8698;SDS011;4386;51.236;6.742;2022-09-09T01:13:11;4.80;;;1.90;;
8698;SDS011;4386;51.236;6.742;2022-09-09T01:14:29;1.70;;;1.50;;
8698;SDS011;4386;51.236;6.742;2022-09-09T01:15:37;1.80;;;1.70;;
8698;SDS011;4386;51.236;6.742;2022-09-09T01:16:41;2.40;;;1.70;;
8698;SDS011;4386;51.236;6.742;2022-09-09T01:17:52;1.90;;;1.57;;
8698;SDS011;4386;51.236;6.742;2022-09-09T01:19:02;2.07;;;1.50;;
8698;SDS011;4386;51.236;6.742;2022-09-09T01:20:08;3.17;;;1.90;;
8698;SDS011;4386;51.236;6.742;2022-09-09T01:21:16;3.50;;;1.50;;
8698;SDS011;4386;51.236;6.742;2022-09-09T01:22:31;3.40;;;1.70;;
8698;SDS011;4386;51.236;6.742;2022-09-09T01:23:41;2.50;;;1.53;;
8698;SDS011;4386;51.236;6.742;2022-09-09T01:25:07;1.73;;;1.63;;
8698;SDS011;4386;51.236;6.742;2022-09-09T01:26:26;3.50;;;1.70;;
8698;SDS011;4386;51.236;6.742;2022-09-09T01:27:31;2.30;;;1.60;;
8698;SDS011;4386;51.236;6.742;2022-09-09T01:28:35;2.40;;;1.60;;
8698;SDS011;4386;51.236;6.742;2022-09-09T01:29:38;2.80;;;1.63;;
8698;SDS011;4386;51.236;6.742;2022-09-09T01:30:41;4.27;;;2.00;;
8698;SDS011;4386;51.236;6.742;2022-09-09T01:31:52;7.40;;;1.70;;
8698;SDS011;4386;51.236;6.742;2022-09-09T01:32:57;2.03;;;1.50;;
8698;SDS011;4386;51.236;6.742;2022-09-09T01:34:01;2.20;;;1.57;;
8698;SDS011;4386;51.236;6.742;2022-09-09T01:35:11;2.60;;;1.30;;
8698;SDS011;4386;51.236;6.742;2022-09-09T01:36:24;5.43;;;1.57;;
8698;SDS011;4386;51.236;6.742;2022-09-09T01:37:31;2.87;;;1.97;;
8698;SDS011;4386;51.236;6.742;2022-09-09T01:38:33;6.63;;;1.67;;
8698;SDS011;4386;51.236;6.742;2022-09-09T01:39:38;3.90;;;1.80;;
8698;SDS011;4386;51.236;6.742;2022-09-09T01:40:43;2.80;;;1.57;;
8698;SDS011;4386;51.236;6.742;2022-09-09T01:41:47;4.47;;;1.63;;
8698;SDS011;4386;51.236;6.742;2022-09-09T01:42:49;2.60;;;1.40;;
8698;SDS011;4386;51.236;6.742;2022-09-09T01:43:52;1.77;;;1.67;;
8698;SDS011;4386;51.236;6.742;2022-09-09T01:44:55;4.90;;;1.60;;
8698;SDS011;4386;51.236;6.742;2022-09-09T01:45:59;2.20;;;1.60;;
8698;SDS011;4386;51.236;6.742;2022-09-09T01:47:02;4.10;;;1.50;;
8698;SDS011;4386;51.236;6.742;2022-09-09T01:48:06;2.03;;;1.53;;
8698;SDS011;4386;51.236;6.742;2022-09-09T01:49:07;3.17;;;1.60;;
8698;SDS011;4386;51.236;6.742;2022-09-09T01:50:11;2.83;;;1.60;;
8698;SDS011;4386;51.236;6.742;2022-09-09T01:51:16;2.30;;;1.23;;
8698;SDS011;4386;51.236;6.742;2022-09-09T01:52:19;3.30;;;1.40;;
8698;SDS011;4386;51.236;6.742;2022-09-09T01:53:21;2.50;;;1.40;;
8698;SDS011;4386;51.236;6.742;2022-09-09T01:54:25;3.50;;;1.43;;
8698;SDS011;4386;51.236;6.742;2022-09-09T01:55:29;3.47;;;1.70;;
8698;SDS011;4386;51.236;6.742;2022-09-09T01:56:35;3.27;;;1.70;;
8698;SDS011;4386;51.236;6.742;2022-09-09T01:57:49;2.63;;;1.57;;
8698;SDS011;4386;51.236;6.742;2022-09-09T01:59:05;2.03;;;1.40;;
8698;SDS011;4386;51.236;6.742;2022-09-09T02:00:14;2.33;;;1.43;;
8698;SDS011;4386;51.236;6.742;2022-09-09T02:01:17;2.70;;;1.63;;
8698;SDS011;4386;51.236;6.742;2022-09-09T02:02:30;2.47;;;1.60;;
8698;SDS011;4386;51.236;6.742;2022-09-09T02:03:38;2.53;;;1.30;;
8698;SDS011;4386;51.236;6.742;2022-09-09T02:04:45;1.87;;;1.77;;
8698;SDS011;4386;51.236;6.742;2022-09-09T02:05:52;5.60;;;1.30;;
8698;SDS011;4386;51.236;6.742;2022-09-09T02:07:01;2.00;;;1.60;;
8698;SDS011;4386;51.236;6.742;2022-09-09T02:08:05;4.00;;;1.50;;
8698;SDS011;4386;51.236;6.742;2022-09-09T02:09:10;3.00;;;1.20;;
8698;SDS011;4386;51.236;6.742;2022-09-09T02:10:16;5.97;;;2.37;;
8698;SDS011;4386;51.236;6.742;2022-09-09T02:11:21;2.87;;;1.40;;
8698;SDS011;4386;51.236;6.742;2022-09-09T02:12:26;3.27;;;1.60;;
8698;SDS011;4386;51.236;6.742;2022-09-09T02:13:32;1.80;;;1.20;;
8698;SDS011;4386;51.236;6.742;2022-09-09T02:14:39;7.47;;;2.30;;
8698;SDS011;4386;51.236;6.742;2022-09-09T02:15:47;3.30;;;1.80;;
8698;SDS011;4386;51.236;6.742;2022-09-09T02:16:55;2.50;;;1.60;;
8698;SDS011;4386;51.236;6.742;2022-09-09T02:18:03;3.10;;;1.70;;
8698;SDS011;4386;51.236;6.742;2022-09-09T02:19:09;3.83;;;1.57;;
8698;SDS011;4386;51.236;6.742;2022-09-09T02:20:15;3.03;;;1.80;;
8698;SDS011;4386;51.236;6.742;2022-09-09T02:21:18;5.20;;;1.50;;
8698;SDS011;4386;51.236;6.742;2022-09-09T02:22:21;4.93;;;1.70;;
8698;SDS011;4386;51.236;6.742;2022-09-09T02:23:26;5.40;;;2.50;;
8698;SDS011;4386;51.236;6.742;2022-09-09T02:24:30;6.83;;;1.60;;
8698;SDS011;4386;51.236;6.742;2022-09-09T02:25:35;1.97;;;1.53;;
8698;SDS011;4386;51.236;6.742;2022-09-09T02:26:39;5.93;;;1.30;;
8698;SDS011;4386;51.236;6.742;2022-09-09T02:27:47;2.23;;;1.70;;
8698;SDS011;4386;51.236;6.742;2022-09-09T02:28:53;2.40;;;1.50;;
8698;SDS011;4386;51.236;6.742;2022-09-09T02:29:59;2.30;;;1.60;;
8698;SDS011;4386;51.236;6.742;2022-09-09T02:31:04;3.63;;;1.70;;
8698;SDS011;4386;51.236;6.742;2022-09-09T02:32:08;2.30;;;1.43;;
8698;SDS011;4386;51.236;6.742;2022-09-09T02:33:14;2.67;;;1.50;;
8698;SDS011;4386;51.236;6.742;2022-09-09T02:34:17;2.37;;;1.30;;
8698;SDS011;4386;51.236;6.742;2022-09-09T02:35:21;3.67;;;1.30;;
8698;SDS011;4386;51.236;6.742;2022-09-09T02:36:29;5.03;;;1.87;;
8698;SDS011;4386;51.236;6.742;2022-09-09T02:37:35;1.40;;;1.20;;
8698;SDS011;4386;51.236;6.742;2022-09-09T02:38:41;5.10;;;1.70;;
8698;SDS011;4386;51.236;6.742;2022-09-09T02:39:46;2.97;;;1.43;;
8698;SDS011;4386;51.236;6.742;2022-09-09T02:40:50;1.80;;;1.40;;
8698;SDS011;4386;51.236;6.742;2022-09-09T02:41:51;6.67;;;1.83;;
8698;SDS011;4386;51.236;6.742;2022-09-09T02:42:54;3.27;;;1.30;;
8698;SDS011;4386;51.236;6.742;2022-09-09T02:43:57;7.43;;;1.73;;
8698;SDS011;4386;51.236;6.742;2022-09-09T02:45:00;2.77;;;1.60;;
8698;SDS011;4386;51.236;6.742;2022-09-09T02:46:03;3.83;;;1.67;;
8698;SDS011;4386;51.236;6.742;2022-09-09T02:47:16;4.50;;;2.10;;
8698;SDS011;4386;51.236;6.742;2022-09-09T02:48:30;5.53;;;1.97;;
8698;SDS011;4386;51.236;6.742;2022-09-09T02:49:40;4.93;;;1.70;;
8698;SDS011;4386;51.236;6.742;2022-09-09T02:50:54;4.03;;;1.77;;
8698;SDS011;4386;51.236;6.742;2022-09-09T02:52:06;4.07;;;1.83;;
8698;SDS011;4386;51.236;6.742;2022-09-09T02:53:11;4.77;;;1.90;;
8698;SDS011;4386;51.236;6.742;2022-09-09T02:54:20;6.83;;;1.53;;
8698;SDS011;4386;51.236;6.742;2022-09-09T02:55:29;3.60;;;1.70;;
8698;SDS011;4386;51.236;6.742;2022-09-09T02:56:41;1.90;;;1.43;;
8698;SDS011;4386;51.236;6.742;2022-09-09T02:57:47;3.13;;;1.70;;
8698;SDS011;4386;51.236;6.742;2022-09-09T02:58:51;4.50;;;1.40;;
8698;SDS011;4386;51.236;6.742;2022-09-09T02:59:56;4.70;;;1.90;;
8698;SDS011;4386;51.236;6.742;2022-09-09T03:00:59;2.30;;;1.60;;
8698;SDS011;4386;51.236;6.742;2022-09-09T03:02:04;3.37;;;1.50;;
8698;SDS011;4386;51.236;6.742;2022-09-09T03:03:06;2.70;;;1.50;;
8698;SDS011;4386;51.236;6.742;2022-09-09T03:04:10;4.50;;;2.00;;
8698;SDS011;4386;51.236;6.742;2022-09-09T03:05:12;2.87;;;1.53;;
8698;SDS011;4386;51.236;6.742;2022-09-09T03:06:15;3.80;;;1.40;;
8698;SDS011;4386;51.236;6.742;2022-09-09T03:07:17;3.00;;;1.50;;
8698;SDS011;4386;51.236;6.742;2022-09-09T03:08:20;4.40;;;1.70;;
8698;SDS011;4386;51.236;6.742;2022-09-09T03:09:23;2.00;;;1.53;;
8698;SDS011;4386;51.236;6.742;2022-09-09T03:10:24;2.53;;;1.30;;
8698;SDS011;4386;51.236;6.742;2022-09-09T03:11:27;3.53;;;1.60;;
8698;SDS011;4386;51.236;6.742;2022-09-09T03:12:29;2.23;;;1.70;;
8698;SDS011;4386;51.236;6.742;2022-09-09T03:13:35;6.83;;;2.00;;
8698;SDS011;4386;51.236;6.742;2022-09-09T03:14:36;5.07;;;1.30;;
8698;SDS011;4386;51.236;6.742;2022-09-09T03:15:40;7.60;;;2.27;;
8698;SDS011;4386;51.236;6.742;2022-09-09T03:16:42;3.83;;;2.03;;
8698;SDS011;4386;51.236;6.742;2022-09-09T03:17:45;3.73;;;1.70;;
8698;SDS011;4386;51.236;6.742;2022-09-09T03:18:46;3.03;;;1.57;;
8698;SDS011;4386;51.236;6.742;2022-09-09T03:19:50;3.90;;;1.70;;
8698;SDS011;4386;51.236;6.742;2022-09-09T03:20:53;3.43;;;1.60;;
8698;SDS011;4386;51.236;6.742;2022-09-09T03:21:56;4.27;;;1.93;;
8698;SDS011;4386;51.236;6.742;2022-09-09T03:22:58;4.60;;;1.50;;
8698;SDS011;4386;51.236;6.742;2022-09-09T03:24:02;1.83;;;1.63;;
8698;SDS011;4386;51.236;6.742;2022-09-09T03:25:04;5.60;;;1.90;;
8698;SDS011;4386;51.236;6.742;2022-09-09T03:26:07;5.33;;;1.30;;
8698;SDS011;4386;51.236;6.742;2022-09-09T03:27:09;3.30;;;1.70;;
8698;SDS011;4386;51.236;6.742;2022-09-09T03:28:11;3.00;;;1.40;;
8698;SDS011;4386;51.236;6.742;2022-09-09T03:29:13;4.47;;;1.40;;
8698;SDS011;4386;51.236;6.742;2022-09-09T03:30:16;5.80;;;1.77;;
8698;SDS011;4386;51.236;6.742;2022-09-09T03:31:19;2.50;;;1.60;;
8698;SDS011;4386;51.236;6.742;2022-09-09T03:32:22;2.17;;;1.60;;
8698;SDS011;4386;51.236;6.742;2022-09-09T03:33:24;2.97;;;1.70;;
8698;SDS011;4386;51.236;6.742;2022-09-09T03:34:26;6.93;;;1.80;;
8698;SDS011;4386;51.236;6.742;2022-09-09T03:35:28;4.70;;;1.80;;
8698;SDS011;4386;51.236;6.742;2022-09-09T03:36:31;5.00;;;1.73;;
8698;SDS011;4386;51.236;6.742;2022-09-09T03:37:34;5.37;;;1.80;;
8698;SDS011;4386;51.236;6.742;2022-09-09T03:38:36;3.50;;;1.90;;
8698;SDS011;4386;51.236;6.742;2022-09-09T03:39:38;2.90;;;1.50;;
8698;SDS011;4386;51.236;6.742;2022-09-09T03:40:47;3.10;;;1.60;;
8698;SDS011;4386;51.236;6.742;2022-09-09T03:41:51;4.43;;;2.20;;
8698;SDS011;4386;51.236;6.742;2022-09-09T03:42:52;8.97;;;2.00;;
8698;SDS011;4386;51.236;6.742;2022-09-09T03:43:55;4.60;;;2.17;;
8698;SDS011;4386;51.236;6.742;2022-09-09T03:44:57;1.77;;;1.50;;
8698;SDS011;4386;51.236;6.742;2022-09-09T03:46:00;3.90;;;1.60;;
8698;SDS011;4386;51.236;6.742;2022-09-09T03:47:03;3.17;;;1.57;;
8698;SDS011;4386;51.236;6.742;2022-09-09T03:48:07;3.80;;;1.43;;
8698;SDS011;4386;51.236;6.742;2022-09-09T03:49:13;3.67;;;1.77;;
8698;SDS011;4386;51.236;6.742;2022-09-09T03:50:14;4.13;;;1.40;;
8698;SDS011;4386;51.236;6.742;2022-09-09T03:51:17;3.60;;;1.90;;
8698;SDS011;4386;51.236;6.742;2022-09-09T03:52:19;4.40;;;2.20;;
8698;SDS011;4386;51.236;6.742;2022-09-09T03:53:24;6.60;;;2.00;;
8698;SDS011;4386;51.236;6.742;2022-09-09T03:54:26;4.20;;;1.90;;
8698;SDS011;4386;51.236;6.742;2022-09-09T03:55:28;5.40;;;2.10;;
8698;SDS011;4386;51.236;6.742;2022-09-09T03:56:30;4.00;;;1.60;;
8698;SDS011;4386;51.236;6.742;2022-09-09T03:57:33;3.20;;;1.50;;
8698;SDS011;4386;51.236;6.742;2022-09-09T03:58:36;2.63;;;1.80;;
8698;SDS011;4386;51.236;6.742;2022-09-09T03:59:40;4.30;;;1.70;;
8698;SDS011;4386;51.236;6.742;2022-09-09T04:00:42;10.20;;;1.97;;
8698;SDS011;4386;51.236;6.742;2022-09-09T04:01:46;5.03;;;1.93;;
8698;SDS011;4386;51.236;6.742;2022-09-09T04:02:49;4.90;;;1.73;;
8698;SDS011;4386;51.236;6.742;2022-09-09T04:03:55;4.40;;;1.90;;
8698;SDS011;4386;51.236;6.742;2022-09-09T04:04:59;11.37;;;3.50;;
8698;SDS011;4386;51.236;6.742;2022-09-09T04:06:02;2.13;;;1.87;;
8698;SDS011;4386;51.236;6.742;2022-09-09T04:07:05;4.63;;;1.80;;
8698;SDS011;4386;51.236;6.742;2022-09-09T04:08:08;4.07;;;2.17;;
8698;SDS011;4386;51.236;6.742;2022-09-09T04:09:09;8.10;;;2.47;;
8698;SDS011;4386;51.236;6.742;2022-09-09T04:10:12;4.53;;;2.03;;
8698;SDS011;4386;51.236;6.742;2022-09-09T04:11:14;4.00;;;2.03;;
8698;SDS011;4386;51.236;6.742;2022-09-09T04:12:17;9.20;;;1.90;;
8698;SDS011;4386;51.236;6.742;2022-09-09T04:13:19;5.10;;;1.47;;
8698;SDS011;4386;51.236;6.742;2022-09-09T04:14:21;6.23;;;2.00;;
8698;SDS011;4386;51.236;6.742;2022-09-09T04:15:23;5.13;;;2.30;;
8698;SDS011;4386;51.236;6.742;2022-09-09T04:16:26;3.10;;;1.80;;
8698;SDS011;4386;51.236;6.742;2022-09-09T04:17:27;7.83;;;2.20;;
8698;SDS011;4386;51.236;6.742;2022-09-09T04:18:31;5.50;;;1.70;;
8698;SDS011;4386;51.236;6.742;2022-09-09T04:19:35;2.33;;;2.13;;
8698;SDS011;4386;51.236;6.742;2022-09-09T04:20:38;3.77;;;2.13;;
8698;SDS011;4386;51.236;6.742;2022-09-09T04:21:40;2.80;;;2.10;;
8698;SDS011;4386;51.236;6.742;2022-09-09T04:22:43;4.73;;;2.10;;
8698;SDS011;4386;51.236;6.742;2022-09-09T04:23:44;4.90;;;2.67;;
8698;SDS011;4386;51.236;6.742;2022-09-09T04:24:47;2.83;;;2.57;;
8698;SDS011;4386;51.236;6.742;2022-09-09T04:25:49;2.80;;;2.10;;
8698;SDS011;4386;51.236;6.742;2022-09-09T04:26:53;6.43;;;1.90;;
8698;SDS011;4386;51.236;6.742;2022-09-09T04:27:55;8.73;;;2.33;;
8698;SDS011;4386;51.236;6.742;2022-09-09T04:28:58;6.53;;;2.13;;
8698;SDS011;4386;51.236;6.742;2022-09-09T04:30:00;6.30;;;2.10;;
8698;SDS011;4386;51.236;6.742;2022-09-09T04:31:06;6.03;;;1.80;;
8698;SDS011;4386;51.236;6.742;2022-09-09T04:32:08;5.60;;;2.00;;
8698;SDS011;4386;51.236;6.742;2022-09-09T04:33:11;2.20;;;1.83;;
8698;SDS011;4386;51.236;6.742;2022-09-09T04:34:15;6.00;;;2.07;;
8698;SDS011;4386;51.236;6.742;2022-09-09T04:35:17;4.50;;;1.80;;
8698;SDS011;4386;51.236;6.742;2022-09-09T04:36:19;6.30;;;2.10;;
8698;SDS011;4386;51.236;6.742;2022-09-09T04:37:22;4.10;;;1.60;;
8698;SDS011;4386;51.236;6.742;2022-09-09T04:38:25;6.00;;;1.90;;
8698;SDS011;4386;51.236;6.742;2022-09-09T04:39:28;2.20;;;1.67;;
8698;SDS011;4386;51.236;6.742;2022-09-09T04:40:30;3.27;;;1.77;;
8698;SDS011;4386;51.236;6.742;2022-09-09T04:41:34;6.43;;;2.33;;
8698;SDS011;4386;51.236;6.742;2022-09-09T04:42:37;3.57;;;1.90;;
8698;SDS011;4386;51.236;6.742;2022-09-09T04:43:38;2.97;;;1.83;;
8698;SDS011;4386;51.236;6.742;2022-09-09T04:44:43;10.23;;;2.57;;
8698;SDS011;4386;51.236;6.742;2022-09-09T04:45:46;2.20;;;2.00;;
8698;SDS011;4386;51.236;6.742;2022-09-09T04:46:50;6.70;;;2.20;;
8698;SDS011;4386;51.236;6.742;2022-09-09T04:47:52;7.23;;;2.23;;
8698;SDS011;4386;51.236;6.742;2022-09-09T04:48:54;4.13;;;1.80;;
8698;SDS011;4386;51.236;6.742;2022-09-09T04:49:58;3.33;;;2.37;;
8698;SDS011;4386;51.236;6.742;2022-09-09T04:51:00;4.97;;;2.60;;
8698;SDS011;4386;51.236;6.742;2022-09-09T04:52:05;5.43;;;2.17;;
8698;SDS011;4386;51.236;6.742;2022-09-09T04:53:07;4.90;;;1.93;;
8698;SDS011;4386;51.236;6.742;2022-09-09T04:54:10;5.37;;;1.70;;
8698;SDS011;4386;51.236;6.742;2022-09-09T04:55:12;5.70;;;2.47;;
8698;SDS011;4386;51.236;6.742;2022-09-09T04:56:16;2.07;;;1.87;;
8698;SDS011;4386;51.236;6.742;2022-09-09T04:57:18;5.73;;;2.50;;
8698;SDS011;4386;51.236;6.742;2022-09-09T04:58:21;9.53;;;2.33;;
8698;SDS011;4386;51.236;6.742;2022-09-09T04:59:23;7.47;;;2.33;;
8698;SDS011;4386;51.236;6.742;2022-09-09T05:00:26;6.27;;;2.50;;
8698;SDS011;4386;51.236;6.742;2022-09-09T05:01:28;3.63;;;2.17;;
8698;SDS011;4386;51.236;6.742;2022-09-09T05:02:30;6.37;;;2.60;;
8698;SDS011;4386;51.236;6.742;2022-09-09T05:03:33;4.57;;;2.10;;
8698;SDS011;4386;51.236;6.742;2022-09-09T05:04:35;7.10;;;2.30;;
8698;SDS011;4386;51.236;6.742;2022-09-09T05:05:38;5.87;;;1.90;;
8698;SDS011;4386;51.236;6.742;2022-09-09T05:06:41;6.13;;;2.60;;
8698;SDS011;4386;51.236;6.742;2022-09-09T05:07:43;6.83;;;2.83;;
8698;SDS011;4386;51.236;6.742;2022-09-09T05:08:46;6.50;;;2.30;;
8698;SDS011;4386;51.236;6.742;2022-09-09T05:09:47;7.57;;;2.40;;
8698;SDS011;4386;51.236;6.742;2022-09-09T05:10:50;7.10;;;2.60;;
8698;SDS011;4386;51.236;6.742;2022-09-09T05:11:52;3.40;;;1.90;;
8698;SDS011;4386;51.236;6.742;2022-09-09T05:12:54;7.90;;;2.77;;
8698;SDS011;4386;51.236;6.742;2022-09-09T05:13:56;7.07;;;2.40;;
8698;SDS011;4386;51.236;6.742;2022-09-09T05:14:59;9.40;;;2.20;;
8698;SDS011;4386;51.236;6.742;2022-09-09T05:16:00;4.57;;;1.90;;
8698;SDS011;4386;51.236;6.742;2022-09-09T05:17:03;18.13;;;2.63;;
8698;SDS011;4386;51.236;6.742;2022-09-09T05:18:05;10.03;;;2.17;;
8698;SDS011;4386;51.236;6.742;2022-09-09T05:19:08;7.87;;;2.30;;
8698;SDS011;4386;51.236;6.742;2022-09-09T05:20:10;7.27;;;2.17;;
8698;SDS011;4386;51.236;6.742;2022-09-09T05:21:19;9.03;;;2.20;;
8698;SDS011;4386;51.236;6.742;2022-09-09T05:22:24;8.70;;;1.90;;
8698;SDS011;4386;51.236;6.742;2022-09-09T05:23:25;5.80;;;2.30;;
8698;SDS011;4386;51.236;6.742;2022-09-09T05:24:28;4.27;;;1.90;;
8698;SDS011;4386;51.236;6.742;2022-09-09T05:25:34;3.97;;;1.93;;
8698;SDS011;4386;51.236;6.742;2022-09-09T05:26:36;2.70;;;1.90;;
8698;SDS011;4386;51.236;6.742;2022-09-09T05:27:38;6.83;;;3.00;;
8698;SDS011;4386;51.236;6.742;2022-09-09T05:28:40;4.33;;;2.20;;
8698;SDS011;4386;51.236;6.742;2022-09-09T05:29:42;5.33;;;2.73;;
8698;SDS011;4386;51.236;6.742;2022-09-09T05:30:45;4.43;;;2.33;;
8698;SDS011;4386;51.236;6.742;2022-09-09T05:31:47;4.30;;;2.40;;
8698;SDS011;4386;51.236;6.742;2022-09-09T05:32:50;8.10;;;2.07;;
8698;SDS011;4386;51.236;6.742;2022-09-09T05:33:51;7.00;;;2.60;;
8698;SDS011;4386;51.236;6.742;2022-09-09T05:34:54;6.20;;;2.00;;
8698;SDS011;4386;51.236;6.742;2022-09-09T05:35:57;7.13;;;2.60;;
8698;SDS011;4386;51.236;6.742;2022-09-09T05:37:00;8.83;;;3.13;;
8698;SDS011;4386;51.236;6.742;2022-09-09T05:38:06;5.10;;;2.20;;
8698;SDS011;4386;51.236;6.742;2022-09-09T05:39:08;3.63;;;2.10;;
8698;SDS011;4386;51.236;6.742;2022-09-09T05:40:13;6.23;;;2.10;;
8698;SDS011;4386;51.236;6.742;2022-09-09T05:41:15;8.73;;;2.70;;
8698;SDS011;4386;51.236;6.742;2022-09-09T05:42:18;9.50;;;2.50;;
8698;SDS011;4386;51.236;6.742;2022-09-09T05:43:20;5.30;;;2.47;;
8698;SDS011;4386;51.236;6.742;2022-09-09T05:44:22;6.07;;;2.07;;
8698;SDS011;4386;51.236;6.742;2022-09-09T05:45:25;7.00;;;2.50;;
8698;SDS011;4386;51.236;6.742;2022-09-09T05:46:27;6.90;;;2.33;;
8698;SDS011;4386;51.236;6.742;2022-09-09T05:47:29;9.53;;;2.63;;
8698;SDS011;4386;51.236;6.742;2022-09-09T05:48:32;9.00;;;2.17;;
8698;SDS011;4386;51.236;6.742;2022-09-09T05:49:35;3.63;;;2.20;;
8698;SDS011;4386;51.236;6.742;2022-09-09T05:50:38;8.73;;;2.40;;
8698;SDS011;4386;51.236;6.742;2022-09-09T05:51:40;10.10;;;2.57;;
8698;SDS011;4386;51.236;6.742;2022-09-09T05:52:45;4.80;;;3.07;;
8698;SDS011;4386;51.236;6.742;2022-09-09T05:53:47;4.83;;;2.50;;
8698;SDS011;4386;51.236;6.742;2022-09-09T05:54:50;3.83;;;2.30;;
8698;SDS011;4386;51.236;6.742;2022-09-09T05:55:58;4.87;;;2.40;;
8698;SDS011;4386;51.236;6.742;2022-09-09T05:57:01;6.60;;;2.40;;
8698;SDS011;4386;51.236;6.742;2022-09-09T05:58:04;8.47;;;4.50;;
8698;SDS011;4386;51.236;6.742;2022-09-09T05:59:05;8.47;;;2.53;;
8698;SDS011;4386;51.236;6.742;2022-09-09T06:00:09;14.40;;;2.53;;
8698;SDS011;4386;51.236;6.742;2022-09-09T06:01:14;9.10;;;2.90;;
8698;SDS011;4386;51.236;6.742;2022-09-09T06:02:17;7.90;;;3.07;;
8698;SDS011;4386;51.236;6.742;2022-09-09T06:03:19;7.90;;;2.60;;
8698;SDS011;4386;51.236;6.742;2022-09-09T06:04:24;8.03;;;2.20;;
8698;SDS011;4386;51.236;6.742;2022-09-09T06:05:26;9.30;;;2.27;;
8698;SDS011;4386;51.236;6.742;2022-09-09T06:06:30;9.43;;;2.40;;
8698;SDS011;4386;51.236;6.742;2022-09-09T06:07:32;4.90;;;3.00;;
8698;SDS011;4386;51.236;6.742;2022-09-09T06:08:37;6.00;;;3.37;;
8698;SDS011;4386;51.236;6.742;2022-09-09T06:09:43;8.50;;;2.63;;
8698;SDS011;4386;51.236;6.742;2022-09-09T06:10:45;5.97;;;2.93;;
8698;SDS011;4386;51.236;6.742;2022-09-09T06:11:47;6.80;;;2.50;;
8698;SDS011;4386;51.236;6.742;2022-09-09T06:12:52;7.07;;;2.47;;
8698;SDS011;4386;51.236;6.742;2022-09-09T06:13:54;10.40;;;2.67;;
8698;SDS011;4386;51.236;6.742;2022-09-09T06:14:56;8.03;;;2.40;;
8698;SDS011;4386;51.236;6.742;2022-09-09T06:15:58;4.23;;;2.03;;
8698;SDS011;4386;51.236;6.742;2022-09-09T06:17:01;15.17;;;2.93;;
8698;SDS011;4386;51.236;6.742;2022-09-09T06:18:04;6.33;;;2.80;;
8698;SDS011;4386;51.236;6.742;2022-09-09T06:19:09;4.57;;;2.50;;
8698;SDS011;4386;51.236;6.742;2022-09-09T06:20:13;9.57;;;2.47;;
8698;SDS011;4386;51.236;6.742;2022-09-09T06:21:15;5.13;;;2.20;;
8698;SDS011;4386;51.236;6.742;2022-09-09T06:22:19;7.53;;;3.07;;
8698;SDS011;4386;51.236;6.742;2022-09-09T06:23:21;5.20;;;2.67;;
8698;SDS011;4386;51.236;6.742;2022-09-09T06:24:25;6.63;;;2.00;;
8698;SDS011;4386;51.236;6.742;2022-09-09T06:25:28;4.03;;;2.40;;
8698;SDS011;4386;51.236;6.742;2022-09-09T06:26:30;11.00;;;2.40;;
8698;SDS011;4386;51.236;6.742;2022-09-09T06:27:34;9.17;;;2.57;;
8698;SDS011;4386;51.236;6.742;2022-09-09T06:28:36;6.17;;;2.47;;
8698;SDS011;4386;51.236;6.742;2022-09-09T06:29:39;6.57;;;2.10;;
8698;SDS011;4386;51.236;6.742;2022-09-09T06:30:40;3.70;;;1.90;;
8698;SDS011;4386;51.236;6.742;2022-09-09T06:31:43;6.30;;;2.33;;
8698;SDS011;4386;51.236;6.742;2022-09-09T06:32:46;14.20;;;3.57;;
8698;SDS011;4386;51.236;6.742;2022-09-09T06:33:47;7.87;;;2.07;;
8698;SDS011;4386;51.236;6.742;2022-09-09T06:34:51;8.93;;;2.67;;
8698;SDS011;4386;51.236;6.742;2022-09-09T06:35:54;5.57;;;2.53;;
8698;SDS011;4386;51.236;6.742;2022-09-09T06:36:56;7.83;;;3.27;;
8698;SDS011;4386;51.236;6.742;2022-09-09T06:37:59;7.43;;;2.93;;
8698;SDS011;4386;51.236;6.742;2022-09-09T06:39:01;10.60;;;2.40;;
8698;SDS011;4386;51.236;6.742;2022-09-09T06:40:05;6.80;;;2.73;;
8698;SDS011;4386;51.236;6.742;2022-09-09T06:41:08;6.03;;;2.00;;
8698;SDS011;4386;51.236;6.742;2022-09-09T06:42:11;7.87;;;2.40;;
8698;SDS011;4386;51.236;6.742;2022-09-09T06:43:13;8.40;;;2.07;;
8698;SDS011;4386;51.236;6.742;2022-09-09T06:44:16;8.20;;;2.47;;
8698;SDS011;4386;51.236;6.742;2022-09-09T06:45:18;5.07;;;2.57;;